createdAt,value
2017-06-29T00:00:08.956Z,17.95
2017-06-29T00:00:22.388Z,18.02
2017-06-29T00:00:35.302Z,17.95
2017-06-29T00:00:48.251Z,17.95
2017-06-29T00:01:01.729Z,17.96
2017-06-29T00:01:15.144Z,17.95
2017-06-29T00:01:28.669Z,17.9
2017-06-29T00:01:42.133Z,17.88
2017-06-29T00:01:55.537Z,17.87
2017-06-29T00:02:08.973Z,17.87
2017-06-29T00:02:22.504Z,17.84
2017-06-29T00:02:35.901Z,17.83
2017-06-29T00:02:49.328Z,17.83
2017-06-29T00:03:02.238Z,17.86
2017-06-29T00:03:15.715Z,17.87
2017-06-29T00:03:29.270Z,17.79
2017-06-29T00:03:42.719Z,17.83
2017-06-29T00:03:56.101Z,17.73
2017-06-29T00:04:09.584Z,17.8
2017-06-29T00:04:23.063Z,17.77
2017-06-29T00:04:36.551Z,17.77
2017-06-29T00:04:49.498Z,17.81
2017-06-29T00:05:02.925Z,17.79
2017-06-29T00:05:15.823Z,17.73
2017-06-29T00:05:29.274Z,17.71
2017-06-29T00:05:42.703Z,17.77
2017-06-29T00:05:56.123Z,17.76
2017-06-29T00:06:09.602Z,17.74
2017-06-29T00:06:23.045Z,17.83
2017-06-29T00:06:36.558Z,17.86
2017-06-29T00:06:49.987Z,17.79
2017-06-29T00:07:03.469Z,17.92
2017-06-29T00:07:16.962Z,17.96
2017-06-29T00:07:30.433Z,17.95
2017-06-29T00:07:43.899Z,17.96
2017-06-29T00:07:57.401Z,17.99
2017-06-29T00:08:10.334Z,17.9
2017-06-29T00:08:23.748Z,17.96
2017-06-29T00:08:37.199Z,17.95
2017-06-29T00:08:50.739Z,17.96
2017-06-29T00:09:04.223Z,17.92
2017-06-29T00:09:17.120Z,17.95
2017-06-29T00:09:30.576Z,17.94
2017-06-29T00:09:44.053Z,17.94
2017-06-29T00:09:57.536Z,17.81
2017-06-29T00:10:10.442Z,17.86
2017-06-29T00:10:23.862Z,17.83
2017-06-29T00:10:37.348Z,17.87
2017-06-29T00:10:50.861Z,17.81
2017-06-29T00:11:04.339Z,17.76
2017-06-29T00:11:17.313Z,17.76
2017-06-29T00:11:30.506Z,17.74
2017-06-29T00:11:44.036Z,17.79
2017-06-29T00:11:57.486Z,17.81
2017-06-29T00:12:10.431Z,17.71
2017-06-29T00:12:23.437Z,17.65
2017-06-29T00:12:36.873Z,17.65
2017-06-29T00:12:50.390Z,17.77
2017-06-29T00:13:03.837Z,17.62
2017-06-29T00:13:17.294Z,17.68
2017-06-29T00:13:30.790Z,17.73
2017-06-29T00:13:44.262Z,17.65
2017-06-29T00:13:57.726Z,17.66
2017-06-29T00:14:10.123Z,17.66
2017-06-29T00:14:23.634Z,17.66
2017-06-29T00:14:36.579Z,17.74
2017-06-29T00:14:50.045Z,17.63
2017-06-29T00:15:02.965Z,17.65
2017-06-29T00:15:15.947Z,17.57
2017-06-29T00:15:29.393Z,17.66
2017-06-29T00:15:42.850Z,17.54
2017-06-29T00:15:56.304Z,17.57
2017-06-29T00:16:09.232Z,17.55
2017-06-29T00:16:22.659Z,17.52
2017-06-29T00:16:36.170Z,17.49
2017-06-29T00:16:49.602Z,17.54
2017-06-29T00:17:03.053Z,17.49
2017-06-29T00:17:15.981Z,17.57
2017-06-29T00:17:29.435Z,17.46
2017-06-29T00:17:42.878Z,17.43
2017-06-29T00:17:55.858Z,17.54
2017-06-29T00:18:09.293Z,17.42
2017-06-29T00:18:22.787Z,17.42
2017-06-29T00:18:36.233Z,17.45
2017-06-29T00:18:49.702Z,17.45
2017-06-29T00:19:02.691Z,17.43
2017-06-29T00:19:16.156Z,17.32
2017-06-29T00:19:29.603Z,17.32
2017-06-29T00:19:43.090Z,17.39
2017-06-29T00:19:56.527Z,17.35
2017-06-29T00:20:09.426Z,17.38
2017-06-29T00:20:22.857Z,17.38
2017-06-29T00:20:36.401Z,17.35
2017-06-29T00:20:49.876Z,17.27
2017-06-29T00:21:03.330Z,17.25
2017-06-29T00:21:16.882Z,17.28
2017-06-29T00:21:29.324Z,17.25
2017-06-29T00:21:42.741Z,17.3
2017-06-29T00:21:57.572Z,17.28
2017-06-29T00:22:10.502Z,17.22
2017-06-29T00:22:23.999Z,17.25
2017-06-29T00:22:36.908Z,17.28
2017-06-29T00:22:50.378Z,17.25
2017-06-29T00:23:03.829Z,17.22
2017-06-29T00:23:17.300Z,17.27
2017-06-29T00:23:30.787Z,17.18
2017-06-29T00:23:43.724Z,17.22
2017-06-29T00:23:57.104Z,17.25
2017-06-29T00:24:10.010Z,17.24
2017-06-29T00:24:23.534Z,17.25
2017-06-29T00:24:37.043Z,17.21
2017-06-29T00:24:50.535Z,17.18
2017-06-29T00:25:02.913Z,17.28
2017-06-29T00:25:15.300Z,17.25
2017-06-29T00:25:28.753Z,17.27
2017-06-29T00:25:42.205Z,17.28
2017-06-29T00:25:55.672Z,17.28
2017-06-29T00:26:09.070Z,17.36
2017-06-29T00:26:22.435Z,17.39
2017-06-29T00:26:36.127Z,17.39
2017-06-29T00:26:49.598Z,17.35
2017-06-29T00:27:03.081Z,17.43
2017-06-29T00:27:16.493Z,17.42
2017-06-29T00:27:29.361Z,17.43
2017-06-29T00:27:42.789Z,17.47
2017-06-29T00:27:56.284Z,17.4
2017-06-29T00:28:09.238Z,17.4
2017-06-29T00:28:22.623Z,17.39
2017-06-29T00:28:35.515Z,17.46
2017-06-29T00:28:48.952Z,17.43
2017-06-29T00:29:01.924Z,17.52
2017-06-29T00:29:14.867Z,17.54
2017-06-29T00:29:28.400Z,17.54
2017-06-29T00:29:41.883Z,17.55
2017-06-29T00:29:55.378Z,17.46
2017-06-29T00:30:08.884Z,17.52
2017-06-29T00:30:22.342Z,17.55
2017-06-29T00:30:35.826Z,17.57
2017-06-29T00:30:49.313Z,17.54
2017-06-29T00:31:02.201Z,17.55
2017-06-29T00:31:15.654Z,17.55
2017-06-29T00:31:28.591Z,17.55
2017-06-29T00:31:42.118Z,17.52
2017-06-29T00:31:55.531Z,17.54
2017-06-29T00:32:08.950Z,17.58
2017-06-29T00:32:22.377Z,17.49
2017-06-29T00:32:35.839Z,17.46
2017-06-29T00:32:49.265Z,17.46
2017-06-29T00:33:02.722Z,17.52
2017-06-29T00:33:16.187Z,17.39
2017-06-29T00:33:29.122Z,17.4
2017-06-29T00:33:42.789Z,17.45
2017-06-29T00:33:56.239Z,17.4
2017-06-29T00:34:09.652Z,17.4
2017-06-29T00:34:23.067Z,17.42
2017-06-29T00:34:36.502Z,17.38
2017-06-29T00:34:50.134Z,17.28
2017-06-29T00:35:03.079Z,17.28
2017-06-29T00:35:16.543Z,17.24
2017-06-29T00:35:29.422Z,17.27
2017-06-29T00:35:42.925Z,17.18
2017-06-29T00:35:56.408Z,17.24
2017-06-29T00:36:09.852Z,17.22
2017-06-29T00:36:23.320Z,17.24
2017-06-29T00:36:36.734Z,17.18
2017-06-29T00:36:50.171Z,17.21
2017-06-29T00:37:02.589Z,17.13
2017-06-29T00:37:16.036Z,17.12
2017-06-29T00:37:29.447Z,17.07
2017-06-29T00:37:42.884Z,17.06
2017-06-29T00:37:56.296Z,17.05
2017-06-29T00:38:09.784Z,16.99
2017-06-29T00:38:23.255Z,16.97
2017-06-29T00:38:36.742Z,16.94
2017-06-29T00:38:50.202Z,16.94
2017-06-29T00:39:03.156Z,16.95
2017-06-29T00:39:16.105Z,16.9
2017-06-29T00:39:29.633Z,16.91
2017-06-29T00:39:43.075Z,16.9
2017-06-29T00:39:56.483Z,16.92
2017-06-29T00:40:09.463Z,16.88
2017-06-29T00:40:22.951Z,16.81
2017-06-29T00:40:36.447Z,16.85
2017-06-29T00:40:49.896Z,16.87
2017-06-29T00:41:03.333Z,16.87
2017-06-29T00:41:16.782Z,16.76
2017-06-29T00:41:30.323Z,16.74
2017-06-29T00:41:44.010Z,16.8
2017-06-29T00:41:56.978Z,16.74
2017-06-29T00:42:09.900Z,16.73
2017-06-29T00:42:23.339Z,16.7
2017-06-29T00:42:36.810Z,16.72
2017-06-29T00:42:49.716Z,16.76
2017-06-29T00:43:03.127Z,16.72
2017-06-29T00:43:16.633Z,16.66
2017-06-29T00:43:30.180Z,16.7
2017-06-29T00:43:43.604Z,16.69
2017-06-29T00:43:57.034Z,16.73
2017-06-29T00:44:10.448Z,16.7
2017-06-29T00:44:23.384Z,16.74
2017-06-29T00:44:36.831Z,16.65
2017-06-29T00:44:50.247Z,16.73
2017-06-29T00:45:03.685Z,16.69
2017-06-29T00:45:17.122Z,16.7
2017-06-29T00:45:30.090Z,16.59
2017-06-29T00:45:43.577Z,16.73
2017-06-29T00:45:57.033Z,16.74
2017-06-29T00:46:09.938Z,16.69
2017-06-29T00:46:22.818Z,16.66
2017-06-29T00:46:36.350Z,16.72
2017-06-29T00:46:49.839Z,16.72
2017-06-29T00:47:03.275Z,16.72
2017-06-29T00:47:16.224Z,16.72
2017-06-29T00:47:29.696Z,16.76
2017-06-29T00:47:43.207Z,16.65
2017-06-29T00:47:56.860Z,16.7
2017-06-29T00:48:10.286Z,16.72
2017-06-29T00:48:23.776Z,16.73
2017-06-29T00:48:36.710Z,16.73
2017-06-29T00:48:49.622Z,16.7
2017-06-29T00:49:03.050Z,16.7
2017-06-29T00:49:16.015Z,16.72
2017-06-29T00:49:28.990Z,16.73
2017-06-29T00:49:42.401Z,16.66
2017-06-29T00:49:55.851Z,16.67
2017-06-29T00:50:08.828Z,16.67
2017-06-29T00:50:21.194Z,16.7
2017-06-29T00:50:34.139Z,16.7
2017-06-29T00:50:47.554Z,16.67
2017-06-29T00:51:00.989Z,16.67
2017-06-29T00:51:13.967Z,16.69
2017-06-29T00:51:26.939Z,16.66
2017-06-29T00:51:40.437Z,16.69
2017-06-29T00:51:53.893Z,16.67
2017-06-29T00:52:07.355Z,16.69
2017-06-29T00:52:20.288Z,16.67
2017-06-29T00:52:33.714Z,16.73
2017-06-29T00:52:47.163Z,16.62
2017-06-29T00:53:00.597Z,16.66
2017-06-29T00:53:13.534Z,16.72
2017-06-29T00:53:26.436Z,16.7
2017-06-29T00:53:39.886Z,16.73
2017-06-29T00:53:53.341Z,16.7
2017-06-29T00:54:06.785Z,16.77
2017-06-29T00:54:20.293Z,16.74
2017-06-29T00:54:33.784Z,16.76
2017-06-29T00:54:47.248Z,16.73
2017-06-29T00:55:00.726Z,16.69
2017-06-29T00:55:13.623Z,16.74
2017-06-29T00:55:26.635Z,16.72
2017-06-29T00:55:40.094Z,16.67
2017-06-29T00:55:53.579Z,16.63
2017-06-29T00:56:07.037Z,16.67
2017-06-29T00:56:19.937Z,16.65
2017-06-29T00:56:33.388Z,16.73
2017-06-29T00:56:47.167Z,16.67
2017-06-29T00:57:00.621Z,16.63
2017-06-29T00:57:14.063Z,16.7
2017-06-29T00:57:27.497Z,16.76
2017-06-29T00:57:41.206Z,16.7
2017-06-29T00:57:54.140Z,16.69
2017-06-29T00:58:07.587Z,16.7
2017-06-29T00:58:20.546Z,16.66
2017-06-29T00:58:33.534Z,16.73
2017-06-29T00:58:46.969Z,16.66
2017-06-29T00:59:00.430Z,16.74
2017-06-29T00:59:13.346Z,16.74
2017-06-29T00:59:26.779Z,16.73
2017-06-29T00:59:40.256Z,16.69
2017-06-29T00:59:53.700Z,16.73
2017-06-29T01:00:07.161Z,16.73
2017-06-29T01:00:20.618Z,16.76
2017-06-29T01:00:34.099Z,16.77
2017-06-29T01:00:46.984Z,16.77
2017-06-29T01:01:00.555Z,16.69
2017-06-29T01:01:12.936Z,16.73
2017-06-29T01:01:26.354Z,16.73
2017-06-29T01:01:39.847Z,16.81
2017-06-29T01:01:53.320Z,16.8
2017-06-29T01:02:06.264Z,16.76
2017-06-29T01:02:19.279Z,16.73
2017-06-29T01:02:32.944Z,16.85
2017-06-29T01:02:46.413Z,16.74
2017-06-29T01:02:59.913Z,16.74
2017-06-29T01:03:13.351Z,16.74
2017-06-29T01:03:26.310Z,16.73
2017-06-29T01:03:39.852Z,16.85
2017-06-29T01:03:53.315Z,16.82
2017-06-29T01:04:06.784Z,16.85
2017-06-29T01:04:20.303Z,16.74
2017-06-29T01:04:33.801Z,16.8
2017-06-29T01:04:47.236Z,16.84
2017-06-29T01:04:59.695Z,16.84
2017-06-29T01:05:12.665Z,16.9
2017-06-29T01:05:25.579Z,16.9
2017-06-29T01:05:39.001Z,16.95
2017-06-29T01:05:52.425Z,16.95
2017-06-29T01:06:05.833Z,16.99
2017-06-29T01:06:18.190Z,16.94
2017-06-29T01:06:31.684Z,17
2017-06-29T01:06:45.100Z,16.97
2017-06-29T01:06:58.584Z,17.07
2017-06-29T01:07:12.063Z,16.99
2017-06-29T01:07:25.573Z,17.07
2017-06-29T01:07:39.005Z,17.07
2017-06-29T01:07:52.405Z,17.05
2017-06-29T01:08:05.842Z,17.07
2017-06-29T01:08:19.274Z,17.09
2017-06-29T01:08:32.698Z,17.09
2017-06-29T01:08:46.185Z,17.12
2017-06-29T01:08:59.644Z,17.1
2017-06-29T01:09:12.549Z,17.13
2017-06-29T01:09:25.456Z,17.03
2017-06-29T01:09:38.976Z,17
2017-06-29T01:09:52.470Z,17.18
2017-06-29T01:10:05.397Z,17.18
2017-06-29T01:10:18.802Z,17.07
2017-06-29T01:10:32.255Z,17.12
2017-06-29T01:10:45.664Z,17.12
2017-06-29T01:10:59.121Z,17.09
2017-06-29T01:11:11.999Z,17.13
2017-06-29T01:11:25.442Z,17.12
2017-06-29T01:11:38.906Z,17.1
2017-06-29T01:11:52.410Z,17.15
2017-06-29T01:12:05.834Z,17.09
2017-06-29T01:12:18.762Z,17.13
2017-06-29T01:12:32.267Z,17.05
2017-06-29T01:12:45.171Z,17.12
2017-06-29T01:12:58.124Z,17.09
2017-06-29T01:13:11.573Z,17.09
2017-06-29T01:13:24.991Z,17.03
2017-06-29T01:13:38.391Z,17.06
2017-06-29T01:13:50.812Z,17.07
2017-06-29T01:14:04.316Z,17.17
2017-06-29T01:14:17.746Z,17.07
2017-06-29T01:14:31.178Z,17.09
2017-06-29T01:14:44.601Z,17.09
2017-06-29T01:14:57.561Z,17.09
2017-06-29T01:15:11.009Z,17.07
2017-06-29T01:15:23.873Z,17.05
2017-06-29T01:15:37.297Z,17.03
2017-06-29T01:15:50.773Z,17.07
2017-06-29T01:16:04.238Z,17.09
2017-06-29T01:16:17.152Z,17.02
2017-06-29T01:16:30.652Z,17.07
2017-06-29T01:16:44.074Z,17.06
2017-06-29T01:16:57.072Z,17.07
2017-06-29T01:17:10.034Z,17.07
2017-06-29T01:17:23.536Z,17.12
2017-06-29T01:17:37.036Z,17.15
2017-06-29T01:17:50.043Z,17.09
2017-06-29T01:18:03.578Z,17.03
2017-06-29T01:18:17.022Z,17.1
2017-06-29T01:18:30.518Z,17.1
2017-06-29T01:18:43.968Z,17.1
2017-06-29T01:18:57.459Z,17.17
2017-06-29T01:19:11.116Z,16.99
2017-06-29T01:19:24.558Z,17.1
2017-06-29T01:19:37.997Z,17.02
2017-06-29T01:19:51.492Z,17.07
2017-06-29T01:20:04.878Z,16.99
2017-06-29T01:20:18.338Z,17.06
2017-06-29T01:20:31.849Z,17.13
2017-06-29T01:20:45.315Z,17
2017-06-29T01:20:58.795Z,17.05
2017-06-29T01:21:11.685Z,16.97
2017-06-29T01:21:25.098Z,16.99
2017-06-29T01:21:38.524Z,16.99
2017-06-29T01:21:51.987Z,17.02
2017-06-29T01:22:05.436Z,17
2017-06-29T01:22:18.929Z,17
2017-06-29T01:22:32.372Z,16.97
2017-06-29T01:22:45.926Z,16.99
2017-06-29T01:22:59.393Z,17.02
2017-06-29T01:23:12.810Z,16.97
2017-06-29T01:23:25.692Z,16.97
2017-06-29T01:23:39.152Z,17.02
2017-06-29T01:23:52.572Z,16.97
2017-06-29T01:24:05.508Z,17
2017-06-29T01:24:18.921Z,16.99
2017-06-29T01:24:32.293Z,16.95
2017-06-29T01:24:45.755Z,17.02
2017-06-29T01:24:58.678Z,16.94
2017-06-29T01:25:12.102Z,16.97
2017-06-29T01:25:25.565Z,16.94
2017-06-29T01:25:38.498Z,16.99
2017-06-29T01:25:51.406Z,16.88
2017-06-29T01:26:04.311Z,16.91
2017-06-29T01:26:17.252Z,16.91
2017-06-29T01:26:30.141Z,16.81
2017-06-29T01:26:43.606Z,16.77
2017-06-29T01:26:57.296Z,16.85
2017-06-29T01:27:10.752Z,16.84
2017-06-29T01:27:24.141Z,16.82
2017-06-29T01:27:37.587Z,16.77
2017-06-29T01:27:51.022Z,16.85
2017-06-29T01:28:04.441Z,16.8
2017-06-29T01:28:17.394Z,16.81
2017-06-29T01:28:30.382Z,16.74
2017-06-29T01:28:43.768Z,16.7
2017-06-29T01:28:57.217Z,16.73
2017-06-29T01:29:10.641Z,16.7
2017-06-29T01:29:24.107Z,16.81
2017-06-29T01:29:37.061Z,16.63
2017-06-29T01:29:50.542Z,16.67
2017-06-29T01:30:03.433Z,16.63
2017-06-29T01:30:16.867Z,16.65
2017-06-29T01:30:30.309Z,16.55
2017-06-29T01:30:43.767Z,16.52
2017-06-29T01:30:56.209Z,16.65
2017-06-29T01:31:09.655Z,16.58
2017-06-29T01:31:23.152Z,16.59
2017-06-29T01:31:36.620Z,16.59
2017-06-29T01:31:50.154Z,16.49
2017-06-29T01:32:03.527Z,16.45
2017-06-29T01:32:16.459Z,16.42
2017-06-29T01:32:28.874Z,16.48
2017-06-29T01:32:42.331Z,16.45
2017-06-29T01:32:55.266Z,16.42
2017-06-29T01:33:08.733Z,16.4
2017-06-29T01:33:22.252Z,16.45
2017-06-29T01:33:35.696Z,16.42
2017-06-29T01:33:47.561Z,16.37
2017-06-29T01:34:00.997Z,16.3
2017-06-29T01:34:14.463Z,16.44
2017-06-29T01:34:27.955Z,16.32
2017-06-29T01:34:41.406Z,16.3
2017-06-29T01:34:54.879Z,16.34
2017-06-29T01:35:08.345Z,16.34
2017-06-29T01:35:21.325Z,16.26
2017-06-29T01:35:34.918Z,16.32
2017-06-29T01:35:47.799Z,16.27
2017-06-29T01:36:01.248Z,16.26
2017-06-29T01:36:13.632Z,16.18
2017-06-29T01:36:27.069Z,16.14
2017-06-29T01:36:40.468Z,16.21
2017-06-29T01:36:53.887Z,16.21
2017-06-29T01:37:07.386Z,16.21
2017-06-29T01:37:20.805Z,16.17
2017-06-29T01:37:33.680Z,16.27
2017-06-29T01:37:47.096Z,16.17
2017-06-29T01:37:59.543Z,16.25
2017-06-29T01:38:12.458Z,16.22
2017-06-29T01:38:25.859Z,16.14
2017-06-29T01:38:38.852Z,16.21
2017-06-29T01:38:52.351Z,16.21
2017-06-29T01:39:05.256Z,16.21
2017-06-29T01:39:18.690Z,16.11
2017-06-29T01:39:32.147Z,16.25
2017-06-29T01:39:45.642Z,16.17
2017-06-29T01:39:58.582Z,16.11
2017-06-29T01:40:11.495Z,16.18
2017-06-29T01:40:24.416Z,16.1
2017-06-29T01:40:37.884Z,16.07
2017-06-29T01:40:51.366Z,16.14
2017-06-29T01:41:04.835Z,16
2017-06-29T01:41:18.315Z,16.04
2017-06-29T01:41:31.778Z,16.1
2017-06-29T01:41:44.677Z,16.04
2017-06-29T01:41:58.136Z,16.06
2017-06-29T01:42:11.863Z,16.06
2017-06-29T01:42:25.304Z,16.04
2017-06-29T01:42:38.737Z,16.04
2017-06-29T01:42:52.201Z,16.08
2017-06-29T01:43:05.156Z,16.11
2017-06-29T01:43:18.646Z,16.1
2017-06-29T01:43:32.104Z,16.14
2017-06-29T01:43:45.550Z,16.14
2017-06-29T01:43:59.008Z,16.22
2017-06-29T01:44:12.483Z,16.17
2017-06-29T01:44:25.909Z,16.16
2017-06-29T01:44:39.334Z,16.17
2017-06-29T01:44:52.792Z,16.21
2017-06-29T01:45:06.272Z,16.21
2017-06-29T01:45:19.131Z,16.22
2017-06-29T01:45:32.579Z,16.17
2017-06-29T01:45:46.068Z,16.16
2017-06-29T01:45:59.560Z,16.13
2017-06-29T01:46:11.945Z,16.16
2017-06-29T01:46:25.328Z,16.17
2017-06-29T01:46:38.748Z,16.17
2017-06-29T01:46:52.160Z,16.27
2017-06-29T01:47:05.693Z,16.26
2017-06-29T01:47:19.143Z,16.18
2017-06-29T01:47:32.605Z,16.32
2017-06-29T01:47:46.063Z,16.32
2017-06-29T01:47:59.029Z,16.36
2017-06-29T01:48:11.944Z,16.34
2017-06-29T01:48:25.407Z,16.34
2017-06-29T01:48:38.886Z,16.36
2017-06-29T01:48:52.389Z,16.3
2017-06-29T01:49:05.286Z,16.34
2017-06-29T01:49:18.653Z,16.34
2017-06-29T01:49:32.040Z,16.29
2017-06-29T01:49:45.478Z,16.37
2017-06-29T01:49:58.921Z,16.36
2017-06-29T01:50:12.365Z,16.34
2017-06-29T01:50:25.813Z,16.36
2017-06-29T01:50:39.263Z,16.34
2017-06-29T01:50:52.719Z,16.29
2017-06-29T01:51:06.170Z,16.32
2017-06-29T01:51:19.565Z,16.3
2017-06-29T01:51:32.422Z,16.27
2017-06-29T01:51:45.880Z,16.32
2017-06-29T01:51:59.325Z,16.36
2017-06-29T01:52:12.265Z,16.27
2017-06-29T01:52:25.153Z,16.36
2017-06-29T01:52:38.661Z,16.39
2017-06-29T01:52:51.076Z,16.4
2017-06-29T01:53:04.549Z,16.3
2017-06-29T01:53:17.975Z,16.32
2017-06-29T01:53:31.379Z,16.37
2017-06-29T01:53:44.803Z,16.26
2017-06-29T01:53:58.242Z,16.26
2017-06-29T01:54:11.668Z,16.33
2017-06-29T01:54:25.181Z,16.25
2017-06-29T01:54:38.625Z,16.32
2017-06-29T01:54:52.176Z,16.33
2017-06-29T01:55:05.103Z,16.25
2017-06-29T01:55:18.519Z,16.26
2017-06-29T01:55:31.426Z,16.27
2017-06-29T01:55:44.354Z,16.29
2017-06-29T01:55:57.790Z,16.29
2017-06-29T01:56:11.298Z,16.22
2017-06-29T01:56:24.254Z,16.17
2017-06-29T01:56:37.707Z,16.18
2017-06-29T01:56:52.672Z,16.26
2017-06-29T01:57:06.164Z,16.32
2017-06-29T01:57:19.829Z,16.22
2017-06-29T01:57:33.300Z,16.3
2017-06-29T01:57:46.760Z,16.16
2017-06-29T01:58:00.200Z,16.25
2017-06-29T01:58:13.158Z,16.26
2017-06-29T01:58:26.049Z,16.13
2017-06-29T01:58:39.499Z,16.21
2017-06-29T01:58:52.932Z,16.17
2017-06-29T01:59:05.346Z,16.16
2017-06-29T01:59:18.815Z,16.14
2017-06-29T01:59:31.704Z,16.25
2017-06-29T01:59:45.147Z,16.21
2017-06-29T01:59:58.612Z,16.17
2017-06-29T02:00:12.079Z,16.13
2017-06-29T02:00:25.028Z,16.11
2017-06-29T02:00:38.432Z,16.21
2017-06-29T02:00:51.446Z,16.17
2017-06-29T02:01:04.338Z,16.17
2017-06-29T02:01:17.811Z,16.13
2017-06-29T02:01:31.212Z,16.17
2017-06-29T02:01:44.638Z,16.1
2017-06-29T02:01:58.111Z,16.21
2017-06-29T02:02:11.503Z,16.17
2017-06-29T02:02:24.962Z,16.17
2017-06-29T02:02:38.404Z,16.21
2017-06-29T02:02:51.344Z,16.22
2017-06-29T02:03:04.794Z,16.17
2017-06-29T02:03:18.265Z,16.13
2017-06-29T02:03:31.717Z,16.17
2017-06-29T02:03:45.166Z,16.25
2017-06-29T02:03:58.652Z,16.21
2017-06-29T02:04:12.067Z,16.27
2017-06-29T02:04:25.514Z,16.21
2017-06-29T02:04:38.450Z,16.17
2017-06-29T02:04:51.903Z,16.16
2017-06-29T02:05:04.851Z,16.32
2017-06-29T02:05:18.350Z,16.34
2017-06-29T02:05:31.791Z,16.32
2017-06-29T02:05:45.213Z,16.33
2017-06-29T02:05:57.618Z,16.26
2017-06-29T02:06:11.151Z,16.34
2017-06-29T02:06:24.576Z,16.27
2017-06-29T02:06:38.005Z,16.34
2017-06-29T02:06:51.419Z,16.37
2017-06-29T02:07:04.890Z,16.33
2017-06-29T02:07:18.397Z,16.3
2017-06-29T02:07:31.920Z,16.36
2017-06-29T02:07:45.356Z,16.32
2017-06-29T02:07:58.757Z,16.4
2017-06-29T02:08:12.254Z,16.36
2017-06-29T02:08:25.726Z,16.4
2017-06-29T02:08:39.177Z,16.45
2017-06-29T02:08:52.638Z,16.42
2017-06-29T02:09:06.095Z,16.42
2017-06-29T02:09:19.542Z,16.42
2017-06-29T02:09:33.085Z,16.42
2017-06-29T02:09:46.020Z,16.45
2017-06-29T02:09:59.524Z,16.47
2017-06-29T02:10:12.463Z,16.39
2017-06-29T02:10:25.977Z,16.36
2017-06-29T02:10:38.372Z,16.39
2017-06-29T02:10:51.269Z,16.37
2017-06-29T02:11:04.739Z,16.42
2017-06-29T02:11:17.709Z,16.32
2017-06-29T02:11:30.651Z,16.32
2017-06-29T02:11:43.556Z,16.32
2017-06-29T02:11:57.047Z,16.36
2017-06-29T02:12:10.520Z,16.27
2017-06-29T02:12:23.655Z,16.3
2017-06-29T02:12:37.107Z,16.39
2017-06-29T02:12:50.580Z,16.36
2017-06-29T02:13:04.147Z,16.32
2017-06-29T02:13:17.049Z,16.3
2017-06-29T02:13:30.488Z,16.39
2017-06-29T02:13:43.937Z,16.39
2017-06-29T02:13:58.844Z,16.33
2017-06-29T02:14:12.334Z,16.29
2017-06-29T02:14:25.283Z,16.39
2017-06-29T02:14:38.810Z,16.32
2017-06-29T02:14:52.257Z,16.3
2017-06-29T02:15:05.720Z,16.3
2017-06-29T02:15:19.167Z,16.32
2017-06-29T02:15:32.119Z,16.39
2017-06-29T02:15:45.530Z,16.36
2017-06-29T02:15:58.978Z,16.33
2017-06-29T02:16:11.934Z,16.25
2017-06-29T02:16:25.442Z,16.32
2017-06-29T02:16:38.861Z,16.33
2017-06-29T02:16:52.264Z,16.33
2017-06-29T02:17:05.676Z,16.34
2017-06-29T02:17:19.214Z,16.3
2017-06-29T02:17:32.137Z,16.29
2017-06-29T02:17:45.617Z,16.26
2017-06-29T02:17:58.026Z,16.36
2017-06-29T02:18:11.434Z,16.36
2017-06-29T02:18:24.893Z,16.36
2017-06-29T02:18:38.342Z,16.4
2017-06-29T02:18:51.825Z,16.29
2017-06-29T02:19:29.043Z,16.26
2017-06-29T02:19:42.603Z,16.27
2017-06-29T02:19:56.029Z,16.32
2017-06-29T02:20:09.546Z,16.21
2017-06-29T02:20:22.994Z,16.33
2017-06-29T02:20:36.494Z,16.13
2017-06-29T02:20:49.452Z,16.25
2017-06-29T02:21:02.853Z,16.32
2017-06-29T02:21:15.791Z,16.14
2017-06-29T02:21:29.292Z,16.17
2017-06-29T02:21:42.692Z,16.17
2017-06-29T02:21:56.202Z,16.22
2017-06-29T02:22:09.115Z,16.26
2017-06-29T02:22:22.556Z,16.21
2017-06-29T02:22:35.500Z,16.18
2017-06-29T02:22:49.003Z,16.18
2017-06-29T02:23:01.960Z,16.16
2017-06-29T02:23:14.937Z,16.21
2017-06-29T02:23:27.920Z,16.17
2017-06-29T02:23:41.405Z,16.17
2017-06-29T02:23:54.920Z,16.17
2017-06-29T02:24:08.367Z,16.17
2017-06-29T02:24:21.835Z,16.21
2017-06-29T02:24:35.290Z,16.17
2017-06-29T02:24:48.172Z,16.14
2017-06-29T02:25:01.636Z,16.21
2017-06-29T02:25:15.103Z,16.16
2017-06-29T02:25:28.561Z,16.22
2017-06-29T02:25:42.049Z,16.16
2017-06-29T02:25:55.491Z,16.3
2017-06-29T02:26:08.970Z,16.29
2017-06-29T02:26:21.878Z,16.37
2017-06-29T02:26:35.294Z,16.36
2017-06-29T02:26:48.738Z,16.33
2017-06-29T02:27:02.185Z,16.29
2017-06-29T02:27:15.627Z,16.36
2017-06-29T02:27:28.817Z,16.33
2017-06-29T02:27:42.301Z,16.33
2017-06-29T02:27:55.217Z,16.3
2017-06-29T02:28:08.619Z,16.39
2017-06-29T02:28:22.024Z,16.34
2017-06-29T02:28:35.482Z,16.37
2017-06-29T02:28:48.948Z,16.4
2017-06-29T02:29:02.409Z,16.42
2017-06-29T02:29:15.872Z,16.45
2017-06-29T02:29:29.352Z,16.47
2017-06-29T02:29:42.821Z,16.49
2017-06-29T02:29:56.306Z,16.54
2017-06-29T02:30:09.257Z,16.47
2017-06-29T02:30:22.238Z,16.49
2017-06-29T02:30:35.747Z,16.51
2017-06-29T02:30:49.172Z,16.47
2017-06-29T02:31:02.693Z,16.52
2017-06-29T02:31:16.157Z,16.45
2017-06-29T02:31:29.540Z,16.42
2017-06-29T02:31:43.030Z,16.47
2017-06-29T02:31:55.976Z,16.49
2017-06-29T02:32:09.445Z,16.44
2017-06-29T02:32:22.860Z,16.42
2017-06-29T02:32:36.271Z,16.52
2017-06-29T02:32:49.679Z,16.44
2017-06-29T02:33:02.629Z,16.49
2017-06-29T02:33:16.099Z,16.47
2017-06-29T02:33:29.037Z,16.42
2017-06-29T02:33:42.463Z,16.39
2017-06-29T02:33:55.350Z,16.4
2017-06-29T02:34:08.786Z,16.4
2017-06-29T02:34:22.248Z,16.42
2017-06-29T02:34:35.722Z,16.36
2017-06-29T02:34:49.180Z,16.36
2017-06-29T02:35:02.631Z,16.37
2017-06-29T02:35:16.054Z,16.3
2017-06-29T02:35:29.491Z,16.39
2017-06-29T02:35:42.972Z,16.34
2017-06-29T02:35:56.460Z,16.37
2017-06-29T02:36:09.405Z,16.33
2017-06-29T02:36:22.898Z,16.3
2017-06-29T02:36:36.353Z,16.26
2017-06-29T02:36:49.831Z,16.26
2017-06-29T02:37:03.262Z,16.16
2017-06-29T02:37:16.676Z,16.14
2017-06-29T02:37:29.634Z,16.14
2017-06-29T02:37:43.111Z,16.18
2017-06-29T02:37:56.587Z,16.27
2017-06-29T02:38:09.976Z,16.11
2017-06-29T02:38:22.879Z,16.16
2017-06-29T02:38:36.356Z,16.14
2017-06-29T02:38:49.820Z,16.17
2017-06-29T02:39:03.320Z,16.14
2017-06-29T02:39:16.762Z,16.25
2017-06-29T02:39:30.260Z,16.13
2017-06-29T02:39:43.702Z,16.25
2017-06-29T02:39:57.165Z,16.25
2017-06-29T02:40:10.590Z,16.25
2017-06-29T02:40:24.004Z,16.17
2017-06-29T02:40:37.442Z,16.17
2017-06-29T02:40:50.393Z,16.18
2017-06-29T02:41:03.291Z,16.14
2017-06-29T02:41:16.729Z,16.18
2017-06-29T02:41:30.167Z,16.21
2017-06-29T02:41:43.149Z,16.18
2017-06-29T02:41:56.597Z,16.14
2017-06-29T02:42:10.033Z,16.18
2017-06-29T02:42:22.969Z,16.25
2017-06-29T02:42:36.116Z,16.3
2017-06-29T02:42:49.479Z,16.32
2017-06-29T02:43:02.952Z,16.17
2017-06-29T02:43:15.859Z,16.18
2017-06-29T02:43:29.330Z,16.27
2017-06-29T02:43:42.799Z,16.17
2017-06-29T02:43:56.293Z,16.17
2017-06-29T02:44:09.214Z,16.32
2017-06-29T02:44:22.666Z,16.14
2017-06-29T02:44:36.089Z,16.25
2017-06-29T02:44:49.538Z,16.22
2017-06-29T02:45:02.993Z,16.22
2017-06-29T02:45:16.450Z,16.22
2017-06-29T02:45:29.984Z,16.3
2017-06-29T02:45:43.453Z,16.3
2017-06-29T02:45:56.875Z,16.26
2017-06-29T02:46:09.813Z,16.26
2017-06-29T02:46:23.221Z,16.29
2017-06-29T02:46:36.189Z,16.25
2017-06-29T02:46:49.096Z,16.16
2017-06-29T02:47:02.607Z,16.16
2017-06-29T02:47:15.575Z,16.26
2017-06-29T02:47:28.515Z,16.14
2017-06-29T02:47:41.929Z,16.17
2017-06-29T02:47:55.426Z,16.11
2017-06-29T02:48:08.882Z,16.22
2017-06-29T02:48:22.346Z,16.16
2017-06-29T02:48:35.789Z,16.21
2017-06-29T02:48:49.208Z,16.18
2017-06-29T02:49:02.647Z,16.21
2017-06-29T02:49:16.126Z,16.11
2017-06-29T02:49:29.499Z,16.13
2017-06-29T02:49:42.986Z,16.14
2017-06-29T02:49:56.416Z,16.02
2017-06-29T02:50:09.820Z,16
2017-06-29T02:50:22.239Z,16.08
2017-06-29T02:50:35.781Z,16
2017-06-29T02:50:49.274Z,16.06
2017-06-29T02:51:02.763Z,16.06
2017-06-29T02:51:16.258Z,16.06
2017-06-29T02:51:29.734Z,16.02
2017-06-29T02:51:43.193Z,15.98
2017-06-29T02:51:56.661Z,16.02
2017-06-29T02:52:09.645Z,16.07
2017-06-29T02:52:22.560Z,16.04
2017-06-29T02:52:35.447Z,15.96